Time;durP1;ratioP1;P1;durP2;ratioP2;P2;SDS_P1;SDS_P2;PMS_P1;PMS_P2;Temp;Humidity;BMP_temperature;BMP_pressure;BME280_temperature;BME280_humidity;BME280_pressure;Samples;Min_cycle;Max_cycle;Signal;HPM_P1;HPM_P2
2023/10/18 00:00:57;;;;;;;22.73;14.70;;;5.10;99.90;;;;;;5075129;28;20028;-66
2023/10/18 00:03:25;;;;;;;22.33;14.60;;;5.00;99.90;;;;;;5074954;28;20024;-66
2023/10/18 00:05:50;;;;;;;24.92;16.25;;;5.00;99.90;;;;;;5074850;28;20020;-65
2023/10/18 00:08:17;;;;;;;24.67;15.10;;;5.00;99.90;;;;;;5074870;28;20377;-65
2023/10/18 00:10:42;;;;;;;22.45;15.00;;;5.00;99.90;;;;;;5074958;28;20021;-66
2023/10/18 00:13:08;;;;;;;24.90;14.98;;;5.00;99.90;;;;;;5074562;28;20454;-65
2023/10/18 00:15:34;;;;;;;25.98;15.50;;;5.00;99.90;;;;;;5074348;28;20039;-65
2023/10/18 00:17:59;;;;;;;24.05;14.88;;;5.00;99.90;;;;;;5075127;28;20025;-65
2023/10/18 00:20:25;;;;;;;25.48;15.40;;;5.00;99.90;;;;;;5074043;28;20055;-65
2023/10/18 00:22:51;;;;;;;25.65;14.40;;;4.90;99.90;;;;;;5074792;28;20070;-65
2023/10/18 00:25:19;;;;;;;26.90;15.38;;;4.90;99.90;;;;;;5074385;28;20056;-65
2023/10/18 00:27:45;;;;;;;22.63;14.70;;;5.00;99.90;;;;;;5074872;28;20039;-65
2023/10/18 00:30:11;;;;;;;25.80;15.20;;;5.00;99.90;;;;;;5074692;28;20025;-65
2023/10/18 00:32:38;;;;;;;22.15;14.68;;;5.00;99.90;;;;;;5074707;28;20382;-65
2023/10/18 00:35:16;;;;;;;24.50;15.52;;;5.00;99.90;;;;;;5074272;28;20082;-65
2023/10/18 00:37:42;;;;;;;23.58;15.95;;;5.00;99.90;;;;;;5074359;28;20095;-65
2023/10/18 00:40:20;;;;;;;26.42;16.65;;;5.00;99.90;;;;;;5074266;28;20056;-65
2023/10/18 00:42:46;;;;;;;26.48;15.45;;;5.00;99.90;;;;;;5074542;28;20437;-65
2023/10/18 00:45:12;;;;;;;24.90;15.70;;;5.10;99.90;;;;;;5074090;28;20021;-65
2023/10/18 00:47:38;;;;;;;27.40;15.85;;;5.10;99.90;;;;;;5074340;28;20028;-66
2023/10/18 00:50:05;;;;;;;28.15;15.75;;;5.20;99.90;;;;;;5074324;28;20024;-65
2023/10/18 00:52:32;;;;;;;27.25;15.35;;;5.20;99.90;;;;;;5074075;28;20032;-65
2023/10/18 00:54:57;;;;;;;27.02;14.68;;;5.10;99.90;;;;;;5074103;28;20029;-65
2023/10/18 00:57:24;;;;;;;29.73;15.40;;;5.10;99.90;;;;;;5074545;28;20036;-65
2023/10/18 00:59:52;;;;;;;26.75;15.80;;;5.20;99.90;;;;;;5074520;28;20036;-65
2023/10/18 01:02:19;;;;;;;27.15;15.43;;;5.20;99.90;;;;;;5074128;28;20112;-65
2023/10/18 01:04:46;;;;;;;28.42;14.88;;;5.20;99.90;;;;;;5073289;28;20398;-65
2023/10/18 01:07:15;;;;;;;24.85;15.30;;;5.20;99.90;;;;;;5073977;28;20020;-65
2023/10/18 01:09:47;;;;;;;24.67;16.25;;;5.30;99.90;;;;;;5073557;28;20024;-65
2023/10/18 01:12:14;;;;;;;25.65;15.10;;;5.20;99.90;;;;;;5074032;28;20378;-65
2023/10/18 01:14:40;;;;;;;27.15;14.82;;;5.20;99.90;;;;;;5074025;28;20052;-65
2023/10/18 01:17:07;;;;;;;24.38;15.07;;;5.20;99.90;;;;;;5073960;28;20032;-65
2023/10/18 01:19:33;;;;;;;22.73;13.55;;;5.20;99.90;;;;;;5073736;28;20462;-65
2023/10/18 01:21:59;;;;;;;26.55;14.23;;;5.10;99.90;;;;;;5074001;28;20071;-65
2023/10/18 01:24:34;;;;;;;25.02;14.15;;;5.10;99.90;;;;;;5073174;28;20134;-65
2023/10/18 01:27:01;;;;;;;24.40;14.73;;;5.10;99.90;;;;;;5073919;28;20516;-65
2023/10/18 01:29:26;;;;;;;25.95;14.68;;;5.00;99.90;;;;;;5074042;28;20023;-65
2023/10/18 01:31:54;;;;;;;28.70;15.85;;;5.10;99.90;;;;;;5073790;28;20369;-65
2023/10/18 01:34:19;;;;;;;25.40;15.25;;;5.10;99.90;;;;;;5074146;28;20025;-65
2023/10/18 01:36:46;;;;;;;24.17;14.55;;;5.10;99.90;;;;;;5073896;28;20130;-65
2023/10/18 01:39:20;;;;;;;24.67;14.85;;;5.00;99.90;;;;;;5073824;28;20025;-71
2023/10/18 01:41:48;;;;;;;30.45;15.20;;;4.90;99.90;;;;;;5073232;28;20111;-72
2023/10/18 01:44:18;;;;;;;25.10;14.55;;;4.90;99.90;;;;;;5073806;28;20036;-65
2023/10/18 01:46:45;;;;;;;21.00;14.02;;;4.90;99.90;;;;;;5074055;28;20023;-65
2023/10/18 01:49:16;;;;;;;27.98;14.30;;;4.90;99.90;;;;;;5073424;28;20028;-65
2023/10/18 01:51:44;;;;;;;29.02;15.20;;;4.90;99.90;;;;;;5073689;28;20043;-65
2023/10/18 01:54:12;;;;;;;27.10;15.20;;;5.00;99.90;;;;;;5073747;28;20435;-65
2023/10/18 01:56:38;;;;;;;23.83;14.60;;;5.00;99.90;;;;;;5073323;28;20068;-65
2023/10/18 01:59:14;;;;;;;26.35;15.23;;;5.00;99.90;;;;;;5073931;28;20505;-66
2023/10/18 02:01:40;;;;;;;24.85;15.27;;;4.90;99.90;;;;;;5073579;28;20020;-66
2023/10/18 02:04:23;;;;;;;25.13;15.20;;;5.00;99.90;;;;;;5073782;28;20043;-67
2023/10/18 02:06:50;;;;;;;23.95;15.00;;;4.90;99.90;;;;;;5075532;28;20021;-66
2023/10/18 02:09:16;;;;;;;23.08;13.95;;;4.90;99.90;;;;;;5076940;28;20512;-67
2023/10/18 02:11:43;;;;;;;23.80;14.18;;;4.80;99.90;;;;;;5077593;28;20021;-67
2023/10/18 02:14:09;;;;;;;23.27;14.25;;;4.80;99.90;;;;;;5077012;28;20419;-67
2023/10/18 02:16:34;;;;;;;23.60;14.80;;;4.70;99.90;;;;;;5077559;28;20035;-67
2023/10/18 02:19:00;;;;;;;28.00;14.15;;;4.70;99.90;;;;;;5076664;28;20099;-65
2023/10/18 02:21:26;;;;;;;23.00;14.25;;;4.60;99.90;;;;;;5077363;28;20046;-66
2023/10/18 02:23:52;;;;;;;21.85;13.65;;;4.50;99.90;;;;;;5076548;28;20181;-65
2023/10/18 02:26:33;;;;;;;24.65;14.13;;;4.40;99.90;;;;;;5077464;28;20523;-65
2023/10/18 02:29:00;;;;;;;26.88;14.00;;;4.40;99.90;;;;;;5076685;28;20044;-65
2023/10/18 02:31:28;;;;;;;22.95;14.27;;;4.30;99.90;;;;;;5076896;28;20029;-65
2023/10/18 02:33:55;;;;;;;23.48;14.02;;;4.20;99.90;;;;;;5076629;28;20021;-65
2023/10/18 02:36:21;;;;;;;23.67;14.20;;;4.10;99.90;;;;;;5076719;28;20520;-65
2023/10/18 02:38:49;;;;;;;23.50;13.93;;;4.10;99.90;;;;;;5076301;28;20028;-65
2023/10/18 02:41:19;;;;;;;24.92;14.88;;;4.10;99.90;;;;;;5076996;28;20120;-65
2023/10/18 02:43:47;;;;;;;26.60;15.23;;;4.10;99.90;;;;;;5076675;28;20042;-65
2023/10/18 02:46:15;;;;;;;29.10;15.70;;;4.20;99.90;;;;;;5076699;28;20459;-65
2023/10/18 02:48:44;;;;;;;27.98;15.82;;;4.30;99.90;;;;;;5076421;28;20103;-65
2023/10/18 02:51:12;;;;;;;28.67;15.55;;;4.40;99.90;;;;;;5076611;28;20071;-65
2023/10/18 02:53:41;;;;;;;30.27;16.13;;;4.40;99.90;;;;;;5076401;28;20047;-65
2023/10/18 02:56:17;;;;;;;31.60;16.30;;;4.40;99.90;;;;;;5076814;28;20074;-65
2023/10/18 02:58:43;;;;;;;31.08;16.77;;;4.30;99.90;;;;;;5075656;28;20021;-65
2023/10/18 03:01:09;;;;;;;24.48;15.10;;;4.30;99.90;;;;;;5076735;28;20025;-65
2023/10/18 03:03:35;;;;;;;26.73;15.55;;;4.30;99.90;;;;;;5076406;28;20359;-65
2023/10/18 03:06:06;;;;;;;25.63;15.13;;;4.20;99.90;;;;;;5076211;28;20028;-65
2023/10/18 03:08:33;;;;;;;27.90;14.88;;;4.20;99.90;;;;;;5076172;28;20028;-65
2023/10/18 03:11:01;;;;;;;24.35;15.65;;;4.20;99.90;;;;;;5076444;28;20033;-65
2023/10/18 03:13:27;;;;;;;28.48;16.40;;;4.00;99.90;;;;;;5076394;28;20028;-65
2023/10/18 03:16:04;;;;;;;27.70;15.68;;;4.00;99.90;;;;;;5075552;28;20028;-65
2023/10/18 03:18:31;;;;;;;32.20;16.27;;;4.00;99.90;;;;;;5074990;28;20113;-65
2023/10/18 03:20:57;;;;;;;28.35;16.45;;;4.10;99.90;;;;;;5076145;28;20481;-65
2023/10/18 03:23:26;;;;;;;28.00;16.13;;;4.10;99.90;;;;;;5075278;28;20090;-65
2023/10/18 03:25:59;;;;;;;26.80;15.60;;;4.00;99.90;;;;;;5075527;28;20025;-65
2023/10/18 03:28:33;;;;;;;29.63;16.90;;;4.00;99.90;;;;;;5075959;28;20470;-64
2023/10/18 03:31:00;;;;;;;27.50;15.70;;;4.00;99.90;;;;;;5076165;28;20028;-65
2023/10/18 03:33:28;;;;;;;33.53;17.77;;;4.10;99.90;;;;;;5076049;28;20029;-65
2023/10/18 03:36:06;;;;;;;32.28;16.60;;;4.10;99.90;;;;;;5075150;28;20021;-65
2023/10/18 03:38:39;;;;;;;32.00;17.63;;;4.00;99.90;;;;;;5075864;28;20041;-65
2023/10/18 03:41:08;;;;;;;;;;;4.10;99.90;;;;;;5076033;28;20028;-65
2023/10/18 03:43:36;;;;;;;32.35;17.13;;;4.00;99.90;;;;;;5075804;28;19918;-65
2023/10/18 03:48:57;;;;;;;33.88;17.13;;;4.00;99.90;;;;;;5074627;28;20386;-65
2023/10/18 03:51:26;;;;;;;34.72;18.67;;;4.10;99.90;;;;;;5075270;28;20513;-64
2023/10/18 03:53:53;;;;;;;35.88;18.38;;;4.10;99.90;;;;;;5075172;28;20033;-64
2023/10/18 03:56:21;;;;;;;31.92;18.08;;;4.10;99.90;;;;;;5075042;28;20112;-65
2023/10/18 03:58:49;;;;;;;33.70;18.00;;;4.10;99.90;;;;;;5074759;28;20044;-65
2023/10/18 04:01:21;;;;;;;31.58;18.30;;;4.20;99.90;;;;;;5075453;28;20025;-65
2023/10/18 04:03:49;;;;;;;32.30;18.85;;;4.10;99.90;;;;;;5075266;28;20032;-65
2023/10/18 04:06:27;;;;;;;28.33;17.75;;;4.10;99.90;;;;;;5075295;28;20024;-64
2023/10/18 04:08:58;;;;;;;32.25;18.23;;;4.00;99.90;;;;;;5075111;28;20025;-65
2023/10/18 04:11:26;;;;;;;36.50;19.00;;;4.00;99.90;;;;;;5075258;28;20032;-65
2023/10/18 04:13:52;;;;;;;33.92;19.88;;;4.00;99.90;;;;;;5074929;28;20072;-65
2023/10/18 04:16:18;;;;;;;35.15;20.08;;;4.10;99.90;;;;;;5074455;28;20575;-65
2023/10/18 04:18:44;;;;;;;36.67;20.30;;;4.10;99.90;;;;;;5074611;28;20386;-69
2023/10/18 04:21:22;;;;;;;37.90;21.45;;;4.10;99.90;;;;;;5074628;28;20028;-65
2023/10/18 04:23:49;;;;;;;44.25;22.38;;;4.10;99.90;;;;;;5073961;28;20127;-65
2023/10/18 04:26:18;;;;;;;42.88;22.08;;;4.10;99.90;;;;;;5074699;28;20028;-65
2023/10/18 04:28:45;;;;;;;43.67;21.58;;;4.10;99.90;;;;;;5073863;28;20036;-65
2023/10/18 04:31:14;;;;;;;40.25;21.60;;;4.20;99.90;;;;;;5074348;28;20481;-65
2023/10/18 04:33:41;;;;;;;44.92;22.88;;;4.20;99.90;;;;;;5074274;28;20025;-65
2023/10/18 04:36:11;;;;;;;38.17;21.38;;;4.20;99.90;;;;;;5074822;28;20036;-65
2023/10/18 04:38:46;;;;;;;43.00;21.42;;;4.30;99.90;;;;;;5074230;28;20029;-65
2023/10/18 04:41:31;;;;;;;39.83;22.52;;;4.30;99.90;;;;;;5074423;28;20111;-65
2023/10/18 04:44:34;;;;;;;43.78;22.02;;;4.30;99.90;;;;;;5074571;28;20116;-65
2023/10/18 04:46:47;;;;;;;39.72;22.95;;;4.20;99.90;;;;;;5073559;28;20048;-65
2023/10/18 04:51:54;;;;;;;40.05;22.58;;;4.30;99.90;;;;;;5111984;27;20858;-66
2023/10/18 04:54:27;;;;;;;42.08;23.52;;;4.30;99.90;;;;;;5112035;28;20024;-66
2023/10/18 04:56:56;;;;;;;42.63;23.15;;;4.30;99.90;;;;;;5112027;28;20537;-66
2023/10/18 04:59:29;;;;;;;45.28;23.33;;;4.30;99.90;;;;;;5111956;28;20031;-66
2023/10/18 05:04:32;;;;;;;40.25;23.27;;;4.30;99.90;;;;;;5091620;28;20385;-64
2023/10/18 05:07:01;;;;;;;48.17;24.85;;;4.30;99.90;;;;;;5091618;28;20032;-64
2023/10/18 05:09:30;;;;;;;44.22;23.20;;;4.30;99.90;;;;;;5091737;28;20123;-64
2023/10/18 05:11:57;;;;;;;42.40;22.30;;;4.30;99.90;;;;;;5091404;28;20024;-64
2023/10/18 05:14:35;;;;;;;47.47;24.25;;;4.90;99.90;;;;;;5091261;28;20374;-64
2023/10/18 05:17:04;;;;;;;37.75;22.23;;;4.20;99.90;;;;;;5091401;28;20066;-64
2023/10/18 05:19:37;;;;;;;47.50;23.65;;;4.10;99.90;;;;;;5091051;28;20039;-64
2023/10/18 05:22:04;;;;;;;43.33;22.75;;;4.10;99.90;;;;;;5091144;28;20112;-64
2023/10/18 05:24:36;;;;;;;42.17;22.40;;;4.10;99.90;;;;;;5091193;28;20364;-64
2023/10/18 05:27:05;;;;;;;37.40;22.13;;;4.10;99.90;;;;;;5091184;28;20028;-64
2023/10/18 05:29:43;;;;;;;42.13;22.33;;;4.10;99.90;;;;;;5090657;28;20516;-64
2023/10/18 05:32:16;;;;;;;38.33;21.23;;;4.10;99.90;;;;;;5090761;28;20115;-64
2023/10/18 05:34:51;;;;;;;43.45;22.42;;;4.10;99.90;;;;;;5090993;28;20028;-64
2023/10/18 05:37:19;;;;;;;40.22;21.75;;;4.20;99.90;;;;;;5090494;28;20038;-64
2023/10/18 05:39:49;;;;;;;42.35;21.65;;;4.20;99.90;;;;;;5090876;28;20040;-64
2023/10/18 05:42:20;;;;;;;41.72;21.60;;;4.20;99.90;;;;;;5090641;28;20127;-64
2023/10/18 05:44:47;;;;;;;39.92;21.42;;;4.30;99.90;;;;;;5090662;28;20031;-64
2023/10/18 05:47:13;;;;;;;41.55;21.48;;;4.30;99.90;;;;;;5089886;28;20020;-64
2023/10/18 05:49:41;;;;;;;38.85;22.05;;;4.30;99.90;;;;;;5090664;28;20103;-64
2023/10/18 05:54:39;;;;;;;41.83;22.05;;;4.30;99.90;;;;;;5089759;28;20382;-64
2023/10/18 05:57:08;;;;;;;38.13;20.80;;;4.30;99.90;;;;;;5090295;28;20103;-64
2023/10/18 05:59:33;;;;;;;37.78;21.00;;;4.40;99.90;;;;;;5090151;28;20111;-64
2023/10/18 06:02:00;;;;;;;41.30;20.48;;;4.40;99.90;;;;;;5090191;28;20111;-64
2023/10/18 06:04:33;;;;;;;37.60;19.88;;;4.40;99.90;;;;;;5089193;28;20413;-69
2023/10/18 06:06:59;;;;;;;41.53;20.63;;;4.50;99.90;;;;;;5087587;28;20478;-72
2023/10/18 06:09:26;;;;;;;40.70;20.48;;;4.50;99.90;;;;;;5082953;28;20028;-67
2023/10/18 06:11:53;;;;;;;33.40;19.75;;;4.50;99.90;;;;;;5082428;28;20033;-65
2023/10/18 06:14:18;;;;;;;35.72;20.15;;;4.60;99.90;;;;;;5085239;28;20085;-65
2023/10/18 06:16:51;;;;;;;34.53;19.75;;;4.60;99.90;;;;;;5070427;28;20044;-65
2023/10/18 06:19:22;;;;;;;36.67;19.55;;;4.70;99.90;;;;;;5070635;28;20086;-64
2023/10/18 06:22:14;;;;;;;34.83;20.15;;;4.70;99.90;;;;;;5054567;28;20033;-65
2023/10/18 06:24:33;;;;;;;32.78;19.58;;;4.90;99.90;;;;;;5054862;28;20085;-65
2023/10/18 06:26:59;;;;;;;32.92;19.08;;;4.70;99.90;;;;;;5069120;28;20032;-66
2023/10/18 06:29:24;;;;;;;37.58;20.23;;;4.70;99.90;;;;;;5062662;28;20388;-67
2023/10/18 06:31:50;;;;;;;36.83;19.67;;;4.80;99.90;;;;;;5072690;28;20031;-66
2023/10/18 06:34:17;;;;;;;29.27;17.92;;;4.90;99.90;;;;;;5078611;28;20488;-68
2023/10/18 06:36:47;;;;;;;34.08;19.98;;;4.90;99.90;;;;;;5071966;28;20027;-65
2023/10/18 06:39:24;;;;;;;32.03;17.95;;;5.00;99.90;;;;;;5073816;28;20482;-65
2023/10/18 06:41:52;;;;;;;31.42;18.67;;;5.10;99.90;;;;;;5062586;28;20036;-65
2023/10/18 06:44:18;;;;;;;30.58;18.05;;;5.20;99.90;;;;;;5062683;28;20644;-66
2023/10/18 06:46:47;;;;;;;32.38;18.75;;;5.30;99.90;;;;;;5058014;28;20083;-65
2023/10/18 06:49:13;;;;;;;33.88;18.13;;;5.40;99.90;;;;;;5066907;28;20470;-65
2023/10/18 06:51:40;;;;;;;31.40;18.02;;;5.60;99.90;;;;;;5066564;28;20028;-64
2023/10/18 06:54:13;;;;;;;31.20;17.13;;;5.80;99.90;;;;;;5057638;28;20032;-65
2023/10/18 06:56:40;;;;;;;27.65;17.27;;;6.00;99.90;;;;;;5062244;28;20426;-66
2023/10/18 06:59:07;;;;;;;29.80;17.58;;;6.20;99.90;;;;;;5076443;28;20043;-66
2023/10/18 07:01:41;;;;;;;26.95;16.88;;;6.40;99.90;;;;;;5064625;28;20024;-66
2023/10/18 07:04:17;;;;;;;26.88;16.25;;;6.50;99.90;;;;;;5059237;28;20414;-65
2023/10/18 07:06:44;;;;;;;33.55;17.33;;;6.60;99.90;;;;;;5082442;28;20036;-66
2023/10/18 07:09:26;;;;;;;25.85;16.00;;;6.50;99.90;;;;;;5077023;28;20494;-66
2023/10/18 07:11:57;;;;;;;33.90;17.15;;;6.60;99.90;;;;;;5077390;28;20491;-64
2023/10/18 07:14:24;;;;;;;25.77;15.40;;;6.70;99.90;;;;;;5065472;28;20036;-68
2023/10/18 07:16:54;;;;;;;28.38;16.05;;;6.70;99.90;;;;;;5058160;28;20029;-67
2023/10/18 07:21:54;;;;;;;22.77;14.73;;;6.80;94.40;;;;;;5071916;28;20030;-65
2023/10/18 07:24:21;;;;;;;27.52;15.20;;;6.90;91.20;;;;;;5072767;28;20033;-65
2023/10/18 07:26:47;;;;;;;22.98;14.70;;;6.80;95.60;;;;;;5058237;28;20040;-65
2023/10/18 07:29:14;;;;;;;24.23;14.15;;;6.80;89.90;;;;;;5063661;28;20036;-66
2023/10/18 07:31:42;;;;;;;26.23;15.18;;;7.10;77.00;;;;;;5067961;28;20462;-67
2023/10/18 07:34:08;;;;;;;26.38;15.35;;;7.20;68.30;;;;;;5071375;28;20467;-66
2023/10/18 07:36:38;;;;;;;23.70;14.18;;;7.30;60.00;;;;;;5068306;28;20032;-67
2023/10/18 07:39:05;;;;;;;21.50;13.98;;;7.30;56.10;;;;;;5064923;28;20059;-65
2023/10/18 07:41:34;;;;;;;21.25;13.60;;;7.50;49.20;;;;;;5068125;28;20036;-65
2023/10/18 07:44:00;;;;;;;18.98;13.30;;;7.40;32.80;;;;;;5064489;28;20085;-66
2023/10/18 07:46:27;;;;;;;20.23;12.98;;;7.50;44.50;;;;;;5062519;28;20032;-65
2023/10/18 07:48:54;;;;;;;19.70;12.90;;;7.60;43.80;;;;;;5068379;28;20024;-66
2023/10/18 07:51:23;;;;;;;21.17;13.25;;;7.50;53.30;;;;;;5058417;28;20037;-64
2023/10/18 07:53:51;;;;;;;22.65;14.32;;;7.50;42.60;;;;;;5068257;28;20153;-64
2023/10/18 07:56:16;;;;;;;20.58;13.15;;;7.60;40.50;;;;;;5074827;28;20142;-65
2023/10/18 07:58:53;;;;;;;22.40;12.98;;;7.70;47.10;;;;;;5076184;28;20041;-66
2023/10/18 08:01:46;;;;;;;19.58;12.52;;;7.50;21.50;;;;;;5073114;28;20439;-65
2023/10/18 08:04:05;;;;;;;26.27;12.35;;;7.60;21.90;;;;;;5075100;28;20036;-65
2023/10/18 08:06:33;;;;;;;18.98;11.85;;;7.80;26.20;;;;;;5076187;28;20076;-65
2023/10/18 08:09:03;;;;;;;17.17;11.77;;;7.80;1.00;;;;;;5066247;28;20466;-66
2023/10/18 08:11:33;;;;;;;19.02;12.07;;;7.90;15.50;;;;;;5074764;28;20231;-66
2023/10/18 08:13:59;;;;;;;21.67;12.15;;;7.90;1.00;;;;;;5055510;28;20107;-66
2023/10/18 08:16:42;;;;;;;17.15;11.45;;;8.00;1.00;;;;;;5072444;28;20123;-66
2023/10/18 08:19:09;;;;;;;16.92;11.27;;;8.20;5.80;;;;;;5076014;28;20444;-67
2023/10/18 08:21:37;;;;;;;15.98;10.85;;;8.20;1.00;;;;;;5071032;28;20113;-65
2023/10/18 08:24:08;;;;;;;17.92;11.00;;;8.20;1.00;;;;;;5065575;28;20085;-68
2023/10/18 08:26:46;;;;;;;20.35;10.68;;;8.40;1.00;;;;;;5076815;28;20020;-65
2023/10/18 08:29:13;;;;;;;17.05;10.38;;;8.50;1.00;;;;;;5080986;28;20016;-66
2023/10/18 08:31:38;;;;;;;14.85;9.38;;;8.70;1.00;;;;;;5072872;28;20024;-66
2023/10/18 08:34:05;;;;;;;15.50;10.27;;;8.50;1.00;;;;;;5058992;28;20040;-65
2023/10/18 08:36:32;;;;;;;16.95;11.38;;;8.70;1.00;;;;;;5075205;28;20039;-65
2023/10/18 08:39:01;;;;;;;15.77;9.85;;;8.70;1.00;;;;;;5073874;28;20401;-66
2023/10/18 08:41:33;;;;;;;15.35;9.60;;;8.70;1.00;;;;;;5063565;28;20029;-73
2023/10/18 08:44:16;;;;;;;14.68;10.52;;;8.80;1.00;;;;;;5069042;28;20086;-67
2023/10/18 08:46:43;;;;;;;16.60;10.65;;;8.90;1.00;;;;;;5070142;28;20435;-65
2023/10/18 08:49:13;;;;;;;19.35;10.90;;;9.20;1.00;;;;;;5067302;28;20082;-69
2023/10/18 08:51:44;;;;;;;16.30;10.43;;;9.50;1.00;;;;;;5061383;28;20051;-66
2023/10/18 08:54:17;;;;;;;19.08;10.57;;;9.50;1.00;;;;;;5058905;28;20044;-65
2023/10/18 08:56:47;;;;;;;21.77;10.38;;;9.40;1.00;;;;;;5081558;28;20474;-65
2023/10/18 08:59:20;;;;;;;14.10;9.88;;;9.40;1.00;;;;;;5058584;28;20093;-66
2023/10/18 09:04:32;;;;;;;12.07;8.77;;;9.70;99.90;;;;;;5075907;28;20048;-66
2023/10/18 09:07:00;;;;;;;14.40;8.95;;;9.60;1.00;;;;;;5080415;28;20111;-66
2023/10/18 09:09:35;;;;;;;16.45;9.20;;;9.90;1.00;;;;;;5073823;28;20029;-67
2023/10/18 09:12:14;;;;;;;13.23;9.20;;;10.00;99.90;;;;;;5082518;28;20071;-65
2023/10/18 09:14:41;;;;;;;13.00;8.95;;;10.10;1.00;;;;;;5059074;28;20056;-66
2023/10/18 09:17:10;;;;;;;12.95;8.50;;;10.10;99.90;;;;;;5063217;28;20021;-65
2023/10/18 09:19:38;;;;;;;12.65;8.88;;;10.10;99.90;;;;;;5060133;28;20021;-65
2023/10/18 09:22:04;;;;;;;14.25;8.82;;;10.00;99.90;;;;;;5060343;28;20021;-65
2023/10/18 09:24:31;;;;;;;12.20;8.98;;;9.90;99.90;;;;;;5056682;28;20160;-68
2023/10/18 09:26:58;;;;;;;16.35;9.65;;;9.90;99.90;;;;;;5068724;28;20035;-66
2023/10/18 09:29:26;;;;;;;11.88;8.85;;;10.00;99.90;;;;;;5066909;28;20035;-67
2023/10/18 09:32:01;;;;;;;13.70;8.98;;;10.50;99.90;;;;;;5075447;28;20479;-65
2023/10/18 09:34:33;;;;;;;14.20;9.15;;;10.80;99.90;;;;;;5070694;28;20043;-65
2023/10/18 09:36:59;;;;;;;12.57;8.20;;;11.10;1.00;;;;;;5061242;28;20047;-68
2023/10/18 09:39:37;;;;;;;11.07;8.02;;;11.80;1.00;;;;;;5066388;28;20769;-67
2023/10/18 09:42:04;;;;;;;11.60;8.73;;;12.20;99.90;;;;;;5060436;28;20505;-66
2023/10/18 09:44:30;;;;;;;12.00;8.15;;;12.50;99.90;;;;;;5071381;28;20428;-69
2023/10/18 09:46:59;;;;;;;12.18;8.00;;;13.30;99.90;;;;;;5066557;28;20099;-65
2023/10/18 09:49:26;;;;;;;11.60;7.55;;;13.60;99.90;;;;;;5063898;28;20040;-70
2023/10/18 09:51:53;;;;;;;8.55;7.60;;;13.70;1.00;;;;;;5069361;28;20081;-65
2023/10/18 09:54:22;;;;;;;11.35;7.38;;;13.90;70.60;;;;;;5072163;28;20367;-68
2023/10/18 09:56:53;;;;;;;9.10;7.20;;;14.40;17.20;;;;;;5070983;28;20474;-66
2023/10/18 09:59:37;;;;;;;11.10;7.63;;;14.50;1.00;;;;;;5067279;28;20660;-67
2023/10/18 10:02:15;;;;;;;9.95;7.60;;;14.00;99.90;;;;;;5071869;28;20038;-66
2023/10/18 10:04:43;;;;;;;9.15;7.53;;;14.70;1.00;;;;;;5071101;28;20096;-68
2023/10/18 10:07:41;;;;;;;14.63;7.78;;;15.00;99.90;;;;;;5067989;28;20024;-66
2023/10/18 10:10:07;;;;;;;9.50;7.47;;;14.70;1.00;;;;;;5064901;28;20144;-66
2023/10/18 10:12:34;;;;;;;10.18;7.00;;;14.20;99.90;;;;;;5063137;28;20534;-66
2023/10/18 10:15:00;;;;;;;8.90;7.25;;;14.00;99.90;;;;;;5059314;28;20082;-67
2023/10/18 10:17:29;;;;;;;9.55;7.93;;;14.20;99.90;;;;;;5070403;28;20028;-67
2023/10/18 10:20:02;;;;;;;8.93;7.13;;;14.10;99.90;;;;;;5065551;28;20086;-67
2023/10/18 10:22:28;;;;;;;9.55;6.97;;;14.10;99.90;;;;;;5063495;28;20024;-67
2023/10/18 10:25:00;;;;;;;15.80;8.30;;;14.10;99.90;;;;;;5069030;28;20086;-67
2023/10/18 10:27:27;;;;;;;9.88;7.47;;;14.00;1.00;;;;;;5078264;28;20047;-67
2023/10/18 10:29:56;;;;;;;9.43;7.00;;;13.90;1.00;;;;;;5060929;28;20498;-68
2023/10/18 10:32:26;;;;;;;9.77;6.65;;;14.00;1.00;;;;;;5064395;28;20389;-66
2023/10/18 10:35:16;;;;;;;12.82;7.40;;;14.10;99.90;;;;;;5066483;28;20028;-73
2023/10/18 10:37:47;;;;;;;7.97;6.45;;;14.60;99.90;;;;;;5070142;28;20035;-67
2023/10/18 10:43:13;;;;;;;9.82;7.35;;;15.20;1.00;;;;;;5068696;28;20029;-67
2023/10/18 10:45:53;;;;;;;7.82;6.53;;;15.30;99.90;;;;;;5071190;28;20032;-67
2023/10/18 10:48:30;;;;;;;8.07;6.75;;;15.50;99.90;;;;;;5062948;28;20029;-68
2023/10/18 10:51:09;;;;;;;9.30;6.65;;;15.20;99.90;;;;;;5068314;28;20039;-67
2023/10/18 10:53:43;;;;;;;8.23;6.60;;;14.70;99.90;;;;;;5076270;28;20688;-66
2023/10/18 10:56:30;;;;;;;9.88;7.15;;;14.70;99.90;;;;;;5070018;28;20056;-66
2023/10/18 10:59:03;;;;;;;9.25;6.70;;;14.80;1.00;;;;;;5066938;28;20074;-67
2023/10/18 11:07:13;;;;;;;8.82;6.60;;;14.90;99.90;;;;;;5086752;28;20406;-65
2023/10/18 11:09:41;;;;;;;20.50;7.45;;;14.80;99.90;;;;;;5083995;28;20490;-69
2023/10/18 11:12:08;;;;;;;8.55;6.22;;;14.20;52.10;;;;;;5085939;28;20028;-67
2023/10/18 11:14:37;;;;;;;8.25;6.32;;;14.00;1.00;;;;;;5082607;28;20482;-66
2023/10/18 11:17:23;;;;;;;10.38;6.53;;;14.00;99.90;;;;;;5057096;28;20036;-67
2023/10/18 11:19:51;;;;;;;18.67;7.07;;;14.00;1.00;;;;;;5072601;28;20028;-67
2023/10/18 11:22:21;;;;;;;10.18;6.82;;;13.90;5.70;;;;;;5086929;28;20667;-66
2023/10/18 11:24:50;;;;;;;8.63;6.15;;;13.60;1.00;;;;;;5084494;28;20032;-67
2023/10/18 11:27:18;;;;;;;11.88;6.53;;;13.40;1.00;;;;;;5085117;28;20032;-66
2023/10/18 11:29:45;;;;;;;9.25;6.10;;;13.40;99.90;;;;;;5070300;28;20099;-67
2023/10/18 11:32:17;;;;;;;9.70;6.50;;;13.20;99.90;;;;;;5080042;28;20469;-66
2023/10/18 11:34:44;;;;;;;8.37;6.23;;;13.40;99.90;;;;;;5078302;28;20059;-67
2023/10/18 11:37:13;;;;;;;8.13;5.63;;;13.40;99.90;;;;;;5067509;28;20025;-67
2023/10/18 11:39:40;;;;;;;8.90;5.88;;;13.40;1.00;;;;;;5076795;28;20032;-67
2023/10/18 11:42:06;;;;;;;7.53;5.15;;;13.50;99.90;;;;;;5086723;28;20029;-65
2023/10/18 11:44:33;;;;;;;9.50;5.65;;;13.60;99.90;;;;;;5095632;28;20036;-65
2023/10/18 11:47:11;;;;;;;9.40;5.43;;;13.50;99.90;;;;;;5077129;28;20490;-72
2023/10/18 11:49:39;;;;;;;8.25;5.40;;;13.60;1.00;;;;;;5081720;28;20489;-66
2023/10/18 11:52:12;;;;;;;5.38;4.70;;;13.70;99.90;;;;;;5083874;28;20119;-65
2023/10/18 11:54:38;;;;;;;7.80;5.03;;;13.60;99.90;;;;;;5094958;28;20134;-69
2023/10/18 11:57:23;;;;;;;12.48;5.20;;;13.80;99.90;;;;;;5082413;28;20056;-64
2023/10/18 11:59:52;;;;;;;8.38;5.65;;;13.60;1.00;;;;;;5074333;28;20044;-66
2023/10/18 12:02:17;;;;;;;9.20;4.80;;;13.70;1.00;;;;;;5075472;28;20025;-66
2023/10/18 12:04:45;;;;;;;8.05;4.97;;;13.90;99.90;;;;;;5083062;28;20500;-66
2023/10/18 12:07:14;;;;;;;9.15;5.30;;;13.90;1.00;;;;;;5084668;28;20032;-67
2023/10/18 12:09:44;;;;;;;11.07;5.40;;;13.60;45.70;;;;;;5082082;28;20103;-66
2023/10/18 12:12:14;;;;;;;12.52;5.28;;;13.50;41.40;;;;;;5086664;28;20074;-67
2023/10/18 12:14:42;;;;;;;7.97;5.53;;;13.40;1.00;;;;;;5102788;28;20028;-66
2023/10/18 12:17:07;;;;;;;7.78;5.75;;;13.30;1.00;;;;;;5084635;28;20033;-67
2023/10/18 12:19:35;;;;;;;7.97;5.47;;;13.30;1.00;;;;;;5078248;28;20040;-67
2023/10/18 12:22:01;;;;;;;8.45;5.50;;;13.70;99.90;;;;;;5074083;28;20493;-67
2023/10/18 12:24:28;;;;;;;9.77;5.38;;;13.80;99.90;;;;;;5075167;28;20067;-66
2023/10/18 12:26:54;;;;;;;6.80;5.43;;;13.80;91.80;;;;;;5074614;28;20027;-66
2023/10/18 12:29:26;;;;;;;10.63;6.00;;;13.80;99.90;;;;;;5072423;28;20020;-66
2023/10/18 12:31:53;;;;;;;7.40;5.43;;;13.90;1.00;;;;;;5075430;28;20031;-65
2023/10/18 12:34:21;;;;;;;7.30;5.60;;;13.80;99.90;;;;;;5074478;28;20043;-66
2023/10/18 12:36:49;;;;;;;8.50;5.15;;;13.90;99.90;;;;;;5074335;28;20046;-66
2023/10/18 12:39:20;;;;;;;7.53;5.28;;;13.80;99.90;;;;;;5075228;28;20051;-67
2023/10/18 12:41:52;;;;;;;6.57;5.40;;;13.90;1.00;;;;;;5075377;28;20064;-66
2023/10/18 12:44:18;;;;;;;8.05;5.47;;;13.90;99.90;;;;;;5075851;28;20082;-66
2023/10/18 12:46:45;;;;;;;9.57;5.55;;;14.00;1.00;;;;;;5074251;28;20032;-67
2023/10/18 12:49:12;;;;;;;7.85;6.07;;;14.10;6.00;;;;;;5074643;28;20036;-67
2023/10/18 12:51:42;;;;;;;8.18;5.65;;;14.10;99.90;;;;;;5075953;28;20020;-65
2023/10/18 12:54:10;;;;;;;11.73;6.22;;;14.20;73.90;;;;;;5074488;28;20024;-66
2023/10/18 12:56:43;;;;;;;9.13;5.88;;;14.20;99.90;;;;;;5074596;28;20037;-66
2023/10/18 13:01:47;;;;;;;11.82;5.07;;;14.40;1.00;;;;;;5111756;27;20113;-66
2023/10/18 13:04:22;;;;;;;15.38;5.07;;;14.50;1.00;;;;;;5111604;28;20036;-66
2023/10/18 13:06:47;;;;;;;8.55;5.45;;;14.30;99.90;;;;;;5106441;28;20042;-66
2023/10/18 13:14:35;;;;;;;7.25;5.25;;;14.20;1.00;;;;;;5106483;28;20039;-67
2023/10/18 13:17:05;;;;;;;8.53;5.20;;;14.30;99.90;;;;;;5110544;28;20485;-67
2023/10/18 13:19:31;;;;;;;7.10;5.15;;;14.30;99.90;;;;;;5111113;28;20035;-67
2023/10/18 13:21:57;;;;;;;6.97;4.82;;;14.30;99.90;;;;;;5110870;28;20024;-67
2023/10/18 13:27:00;;;;;;;9.52;5.60;;;14.20;1.00;;;;;;5111616;27;20437;-67